createdAt,value
2023-03-16T00:02:06.922Z,8.93
2023-03-16T00:04:37.547Z,8.45
2023-03-16T00:07:10.262Z,12.43
2023-03-16T00:09:40.826Z,7.80
2023-03-16T00:12:18.391Z,8.95
2023-03-16T00:14:49.272Z,7.95
2023-03-16T00:17:19.010Z,7.57
2023-03-16T00:19:54.980Z,7.05
2023-03-16T00:22:24.073Z,10.05
2023-03-16T00:24:50.748Z,7.15
2023-03-16T00:27:18.362Z,9.35
2023-03-16T00:29:47.020Z,8.35
2023-03-16T00:32:18.847Z,6.22
2023-03-16T00:34:46.849Z,6.75
2023-03-16T00:37:18.831Z,8.68
2023-03-16T00:39:47.011Z,7.03
2023-03-16T00:42:16.014Z,12.05
2023-03-16T00:44:42.737Z,9.88
2023-03-16T00:47:10.152Z,8.40
2023-03-16T00:49:36.926Z,11.43
2023-03-16T00:52:07.645Z,9.38
2023-03-16T00:54:36.752Z,9.85
2023-03-16T00:57:04.029Z,8.18
2023-03-16T00:59:31.207Z,7.85
2023-03-16T01:01:57.941Z,11.32
2023-03-16T01:04:24.569Z,11.05
2023-03-16T01:06:51.653Z,11.85
2023-03-16T01:09:18.272Z,12.57
2023-03-16T01:11:45.282Z,10.63
2023-03-16T01:14:14.680Z,14.50
2023-03-16T01:16:46.059Z,11.32
2023-03-16T01:19:13.866Z,8.95
2023-03-16T01:21:42.379Z,12.35
2023-03-16T01:24:09.628Z,9.93
2023-03-16T01:26:36.366Z,11.52
2023-03-16T01:29:03.007Z,10.40
2023-03-16T01:31:29.710Z,13.10
2023-03-16T01:33:56.355Z,10.68
2023-03-16T01:36:23.068Z,13.35
2023-03-16T01:38:49.713Z,13.68
2023-03-16T01:41:17.511Z,12.48
2023-03-16T01:43:44.339Z,11.32
2023-03-16T01:46:25.395Z,10.82
2023-03-16T01:48:59.681Z,11.45
2023-03-16T01:51:43.955Z,11.95
2023-03-16T01:54:25.512Z,13.63
2023-03-16T01:56:56.517Z,12.63
2023-03-16T01:59:31.600Z,11.90
2023-03-16T02:01:59.115Z,11.38
2023-03-16T02:04:36.988Z,15.38
2023-03-16T02:07:07.801Z,12.45
2023-03-16T02:09:37.545Z,14.32
2023-03-16T02:12:04.757Z,12.90
2023-03-16T02:14:31.666Z,16.23
2023-03-16T02:17:01.080Z,14.15
2023-03-16T02:20:01.191Z,12.57
2023-03-16T02:22:28.362Z,12.95
2023-03-16T02:24:55.430Z,12.25
2023-03-16T02:27:40.744Z,13.50
2023-03-16T02:30:14.958Z,10.85
2023-03-16T02:32:45.531Z,12.30
2023-03-16T02:35:13.276Z,13.02
2023-03-16T02:37:41.737Z,12.77
2023-03-16T02:40:28.217Z,14.60
2023-03-16T02:43:13.302Z,14.38
2023-03-16T02:45:45.434Z,18.60
2023-03-16T02:48:23.304Z,21.08
2023-03-16T02:50:55.601Z,19.50
2023-03-16T02:53:22.366Z,18.08
2023-03-16T02:55:49.192Z,16.92
2023-03-16T02:58:16.604Z,20.15
2023-03-16T03:00:45.635Z,21.80
2023-03-16T03:03:12.550Z,22.92
2023-03-16T03:05:39.600Z,22.48
2023-03-16T03:08:06.649Z,21.52
2023-03-16T03:10:33.408Z,24.60
2023-03-16T03:13:00.243Z,22.63
2023-03-16T03:15:26.878Z,20.63
2023-03-16T03:17:55.713Z,24.75
2023-03-16T03:20:22.459Z,24.67
2023-03-16T03:22:52.663Z,21.08
2023-03-16T03:25:21.817Z,22.60
2023-03-16T03:27:51.266Z,23.50
2023-03-16T03:30:20.886Z,24.20
2023-03-16T03:32:52.726Z,21.83
2023-03-16T03:35:21.338Z,31.45
2023-03-16T03:37:50.297Z,26.13
2023-03-16T03:40:18.958Z,24.48
2023-03-16T03:42:45.900Z,23.95
2023-03-16T03:45:13.939Z,27.13
2023-03-16T03:47:42.075Z,22.13
2023-03-16T03:50:11.852Z,24.50
2023-03-16T03:52:38.467Z,28.75
2023-03-16T03:55:05.899Z,26.08
2023-03-16T03:57:32.933Z,25.08
2023-03-16T04:00:02.052Z,26.92
2023-03-16T04:02:28.947Z,29.50
2023-03-16T04:04:55.716Z,25.58
2023-03-16T04:07:24.647Z,24.50
2023-03-16T04:09:53.488Z,28.42
2023-03-16T04:12:20.134Z,24.20
2023-03-16T04:14:46.832Z,26.83
2023-03-16T04:17:13.492Z,30.92
2023-03-16T04:19:42.953Z,24.70
2023-03-16T04:22:09.778Z,29.27
2023-03-16T04:24:36.422Z,26.20
2023-03-16T04:27:03.142Z,27.02
2023-03-16T04:29:29.748Z,30.13
2023-03-16T04:31:58.850Z,30.98
2023-03-16T04:34:27.768Z,29.33
2023-03-16T04:36:54.707Z,34.45
2023-03-16T04:39:21.422Z,34.35
2023-03-16T04:41:48.229Z,30.33
2023-03-16T04:44:14.953Z,30.02
2023-03-16T04:46:43.961Z,29.65
2023-03-16T04:49:10.720Z,36.22
2023-03-16T04:51:40.564Z,34.58
2023-03-16T04:54:09.435Z,31.85
2023-03-16T04:56:36.162Z,31.23
2023-03-16T04:59:02.836Z,30.33
2023-03-16T05:01:29.568Z,28.50
2023-03-16T05:03:57.975Z,30.17
2023-03-16T05:06:26.174Z,30.80
2023-03-16T05:08:55.282Z,30.95
2023-03-16T05:11:24.147Z,27.45
2023-03-16T05:13:50.761Z,29.17
2023-03-16T05:16:17.539Z,33.75
2023-03-16T05:18:46.827Z,32.22
2023-03-16T05:21:16.659Z,33.60
2023-03-16T05:23:43.299Z,30.63
2023-03-16T05:26:09.997Z,32.78
2023-03-16T05:28:36.656Z,31.50
2023-03-16T05:31:03.840Z,32.35
2023-03-16T05:33:30.661Z,32.03
2023-03-16T05:35:58.073Z,34.25
2023-03-16T05:38:27.428Z,30.63
2023-03-16T05:41:01.712Z,36.22
2023-03-16T05:43:29.207Z,35.05
2023-03-16T05:45:56.881Z,33.22
2023-03-16T05:48:26.428Z,29.55
2023-03-16T05:50:53.725Z,35.25
2023-03-16T05:53:20.861Z,34.90
2023-03-16T05:55:56.527Z,35.60
2023-03-16T05:58:23.527Z,35.38
2023-03-16T06:00:50.432Z,35.67
2023-03-16T06:03:17.507Z,36.90
2023-03-16T06:05:44.223Z,34.63
2023-03-16T06:08:11.267Z,35.65
2023-03-16T06:10:40.065Z,36.40
2023-03-16T06:13:08.997Z,37.15
2023-03-16T06:15:35.714Z,38.42
2023-03-16T06:18:02.442Z,35.15
2023-03-16T06:20:29.422Z,34.10
2023-03-16T06:22:58.876Z,34.58
2023-03-16T06:25:25.537Z,36.67
2023-03-16T06:27:52.264Z,36.05
2023-03-16T06:30:18.992Z,30.23
2023-03-16T06:32:45.923Z,34.83
2023-03-16T06:35:15.359Z,44.90
2023-03-16T06:37:42.056Z,53.40
2023-03-16T06:40:10.063Z,38.42
2023-03-16T06:42:39.386Z,38.63
2023-03-16T06:45:06.712Z,39.60
2023-03-16T06:47:33.363Z,39.95
2023-03-16T06:50:03.057Z,43.42
2023-03-16T06:52:29.821Z,34.85
2023-03-16T06:54:58.456Z,37.85
2023-03-16T06:57:25.295Z,33.15
2023-03-16T06:59:52.080Z,31.65
2023-03-16T07:02:19.912Z,37.75
2023-03-16T07:04:46.604Z,34.45
2023-03-16T07:07:13.237Z,31.70
2023-03-16T07:09:41.792Z,33.03
2023-03-16T07:12:09.496Z,32.55
2023-03-16T07:14:36.352Z,28.48
2023-03-16T07:17:03.142Z,29.33
2023-03-16T07:19:32.424Z,30.15
2023-03-16T07:21:59.611Z,27.25
2023-03-16T07:24:26.359Z,25.42
2023-03-16T07:26:53.219Z,28.42
2023-03-16T07:29:20.058Z,27.00
2023-03-16T07:31:46.972Z,27.55
2023-03-16T07:34:16.152Z,35.28
2023-03-16T07:36:42.791Z,28.08
2023-03-16T07:39:14.276Z,27.17
2023-03-16T07:41:41.691Z,35.70
2023-03-16T07:44:08.359Z,26.02
2023-03-16T07:46:35.155Z,28.73
2023-03-16T07:49:02.574Z,41.08
2023-03-16T07:51:29.349Z,24.17
2023-03-16T07:53:56.024Z,30.98
2023-03-16T07:56:22.772Z,28.65
2023-03-16T07:58:49.488Z,25.60
2023-03-16T08:01:16.595Z,22.45
2023-03-16T08:03:44.553Z,23.10
2023-03-16T08:06:13.711Z,23.73
2023-03-16T08:08:40.760Z,19.63
2023-03-16T08:11:09.906Z,26.63
2023-03-16T08:13:36.685Z,26.10
2023-03-16T08:16:10.381Z,19.83
2023-03-16T08:21:06.607Z,20.48
2023-03-16T08:23:33.879Z,19.67
2023-03-16T08:26:01.134Z,20.13
2023-03-16T08:28:28.030Z,21.55
2023-03-16T08:30:55.472Z,17.73
2023-03-16T08:33:23.452Z,17.65
2023-03-16T08:35:50.963Z,19.40
2023-03-16T08:38:19.082Z,18.48
2023-03-16T08:40:48.412Z,18.95
2023-03-16T08:43:17.044Z,19.65
2023-03-16T08:45:47.500Z,16.17
2023-03-16T08:48:16.686Z,17.35
2023-03-16T08:50:44.703Z,15.80
2023-03-16T08:53:13.725Z,15.30
2023-03-16T08:55:45.154Z,24.60
2023-03-16T08:58:15.476Z,13.80
2023-03-16T09:00:43.892Z,16.63
2023-03-16T09:03:15.430Z,15.88
2023-03-16T09:05:44.645Z,17.33
2023-03-16T09:08:12.686Z,24.38
2023-03-16T09:10:39.486Z,15.43
2023-03-16T09:13:08.706Z,17.45
2023-03-16T09:15:36.302Z,14.88
2023-03-16T09:18:04.028Z,13.25
2023-03-16T09:20:33.324Z,15.52
2023-03-16T09:23:02.400Z,22.77
2023-03-16T09:25:29.495Z,26.25
2023-03-16T09:27:56.309Z,12.63
2023-03-16T09:30:23.353Z,17.08
2023-03-16T09:32:50.787Z,14.23
2023-03-16T09:35:20.249Z,13.48
2023-03-16T09:38:04.711Z,10.68
2023-03-16T09:40:39.693Z,10.90
2023-03-16T09:46:06.360Z,12.38
2023-03-16T09:48:35.653Z,12.05
2023-03-16T09:51:06.115Z,14.45
2023-03-16T09:53:36.629Z,10.75
2023-03-16T09:56:35.236Z,10.32
2023-03-16T09:59:39.270Z,12.93
2023-03-16T10:02:50.297Z,14.32
2023-03-16T10:14:17.424Z,13.77
2023-03-16T10:17:08.349Z,10.68
2023-03-16T10:19:45.754Z,14.68
2023-03-16T10:22:26.382Z,12.52
2023-03-16T10:25:00.461Z,10.40
2023-03-16T10:27:33.583Z,10.15
2023-03-16T10:30:02.600Z,9.57
2023-03-16T10:32:36.628Z,8.57
2023-03-16T10:35:25.826Z,11.70
2023-03-16T10:37:52.981Z,10.07
2023-03-16T10:40:20.372Z,9.07
2023-03-16T10:42:47.726Z,11.57
2023-03-16T10:45:29.904Z,9.32
2023-03-16T10:48:21.974Z,10.07
2023-03-16T10:50:54.228Z,14.82
2023-03-16T10:53:33.760Z,10.95
2023-03-16T10:56:08.691Z,10.02
2023-03-16T10:58:42.028Z,13.82
2023-03-16T11:01:20.616Z,8.82
2023-03-16T11:03:53.243Z,9.13
2023-03-16T11:06:24.783Z,14.68
2023-03-16T11:08:53.987Z,10.80
2023-03-16T11:11:27.283Z,9.77
2023-03-16T11:13:58.704Z,9.77
2023-03-16T11:16:39.632Z,8.52
2023-03-16T11:19:24.842Z,8.50
2023-03-16T11:22:03.426Z,11.80
2023-03-16T11:24:54.395Z,9.57
2023-03-16T11:27:31.264Z,9.45
2023-03-16T11:30:07.110Z,10.55
2023-03-16T11:32:37.301Z,9.90
2023-03-16T11:35:18.316Z,12.00
2023-03-16T11:38:10.417Z,8.73
2023-03-16T11:40:59.027Z,11.50
2023-03-16T11:43:34.286Z,11.20
2023-03-16T11:46:21.161Z,9.63
2023-03-16T11:49:05.779Z,10.32
2023-03-16T11:51:42.340Z,11.45
2023-03-16T11:54:24.146Z,8.07
2023-03-16T11:57:07.579Z,9.45
2023-03-16T12:00:02.967Z,7.93
2023-03-16T12:02:48.387Z,8.05
2023-03-16T12:05:27.436Z,7.65
2023-03-16T12:08:20.540Z,6.15
2023-03-16T12:11:02.722Z,7.43
2023-03-16T12:13:30.823Z,10.15
2023-03-16T12:16:03.259Z,9.10
2023-03-16T12:18:33.071Z,8.93
2023-03-16T12:21:05.641Z,8.13
2023-03-16T12:23:32.277Z,10.27
2023-03-16T12:26:00.763Z,9.02
2023-03-16T12:28:29.828Z,7.15
2023-03-16T12:31:10.216Z,10.05
2023-03-16T12:33:48.538Z,8.90
2023-03-16T12:36:55.781Z,7.35
2023-03-16T12:39:40.459Z,7.35
2023-03-16T12:42:35.707Z,6.72
2023-03-16T12:45:16.591Z,6.40
2023-03-16T12:47:46.272Z,12.75
2023-03-16T12:50:16.222Z,7.28
2023-03-16T12:52:49.012Z,6.20
2023-03-16T12:55:27.984Z,6.90
2023-03-16T12:58:06.385Z,11.25
2023-03-16T13:00:40.503Z,6.18
2023-03-16T13:03:16.630Z,7.32
2023-03-16T13:05:55.752Z,5.45
2023-03-16T13:08:23.301Z,6.15
2023-03-16T13:11:10.837Z,6.35
2023-03-16T13:13:59.492Z,5.47
2023-03-16T13:16:36.256Z,8.25
2023-03-16T13:19:27.188Z,8.13
2023-03-16T13:22:26.960Z,7.78
2023-03-16T13:25:16.547Z,7.28
2023-03-16T13:27:49.175Z,6.60
2023-03-16T13:30:24.350Z,4.97
2023-03-16T13:33:22.950Z,14.73
2023-03-16T13:35:53.177Z,6.30
2023-03-16T13:38:27.423Z,4.35
2023-03-16T13:41:11.631Z,7.07
2023-03-16T13:43:44.259Z,4.15
2023-03-16T13:46:30.488Z,5.90
2023-03-16T13:49:00.841Z,7.53
2023-03-16T13:51:30.829Z,6.15
2023-03-16T13:53:57.535Z,4.53
2023-03-16T13:56:28.963Z,5.82
2023-03-16T13:58:58.386Z,3.72
2023-03-16T14:01:30.629Z,5.07
2023-03-16T14:04:08.400Z,9.32
2023-03-16T14:06:35.883Z,8.70
2023-03-16T14:09:06.040Z,6.18
2023-03-16T14:11:33.072Z,4.60
2023-03-16T14:14:00.937Z,5.80
2023-03-16T14:16:33.955Z,3.25
2023-03-16T14:19:14.705Z,3.70
2023-03-16T14:21:46.860Z,4.50
2023-03-16T14:24:28.811Z,11.65
2023-03-16T14:27:08.694Z,6.55
2023-03-16T14:29:35.720Z,4.75
2023-03-16T14:32:03.199Z,2.58
2023-03-16T14:34:35.182Z,8.27
2023-03-16T14:37:08.401Z,5.35
2023-03-16T14:39:35.667Z,3.28
2023-03-16T14:42:07.190Z,3.95
2023-03-16T14:44:36.897Z,6.10
2023-03-16T14:47:05.758Z,3.88
2023-03-16T14:49:35.532Z,5.03
2023-03-16T14:52:09.335Z,4.32
2023-03-16T14:57:05.699Z,6.53
2023-03-16T14:59:35.832Z,2.95
2023-03-16T15:02:06.851Z,4.95
2023-03-16T15:04:36.364Z,3.80
2023-03-16T15:07:18.361Z,8.23
2023-03-16T15:09:49.458Z,4.38
2023-03-16T15:12:20.557Z,4.87
2023-03-16T15:15:06.668Z,5.15
2023-03-16T15:17:33.635Z,6.40
2023-03-16T15:20:00.392Z,6.80
2023-03-16T15:22:32.532Z,3.10
2023-03-16T15:25:00.321Z,7.35
2023-03-16T15:27:34.812Z,4.13
2023-03-16T15:30:02.345Z,3.20
2023-03-16T15:32:29.229Z,4.25
2023-03-16T15:34:56.011Z,2.33
2023-03-16T15:37:27.349Z,3.10
2023-03-16T15:39:53.991Z,7.10
2023-03-16T15:42:20.819Z,6.63
2023-03-16T15:44:48.270Z,5.72
2023-03-16T15:47:15.377Z,4.07
2023-03-16T15:49:48.379Z,4.55
2023-03-16T15:52:32.537Z,5.50
2023-03-16T15:57:31.702Z,3.70
2023-03-16T16:00:01.972Z,4.75
2023-03-16T16:02:31.239Z,18.50
2023-03-16T16:05:02.708Z,10.00
2023-03-16T16:07:29.552Z,8.80
2023-03-16T16:09:56.325Z,7.70
2023-03-16T16:12:26.937Z,5.68
2023-03-16T16:14:56.873Z,5.00
2023-03-16T16:17:36.559Z,6.47
2023-03-16T16:20:23.374Z,6.40
2023-03-16T16:22:51.972Z,10.15
2023-03-16T16:25:21.285Z,4.60
2023-03-16T16:27:48.396Z,4.20
2023-03-16T16:30:23.131Z,4.32
2023-03-16T16:32:50.198Z,5.35
2023-03-16T16:35:20.781Z,9.75
2023-03-16T16:37:48.272Z,7.13
2023-03-16T16:40:20.524Z,7.80
2023-03-16T16:42:51.878Z,6.68
2023-03-16T16:45:21.747Z,7.57
2023-03-16T16:47:52.158Z,8.35
2023-03-16T16:50:25.450Z,10.40
2023-03-16T16:52:53.060Z,6.68
2023-03-16T16:55:24.459Z,6.35
2023-03-16T16:57:54.316Z,6.50
2023-03-16T17:00:26.004Z,6.78
2023-03-16T17:02:57.388Z,6.82
2023-03-16T17:05:28.606Z,10.75
2023-03-16T17:07:55.669Z,17.27
2023-03-16T17:10:25.916Z,9.25
2023-03-16T17:12:55.274Z,6.90
2023-03-16T17:15:32.850Z,8.25
2023-03-16T17:18:03.906Z,9.13
2023-03-16T17:20:31.095Z,4.95
2023-03-16T17:22:58.817Z,7.32
2023-03-16T17:25:32.443Z,7.45
2023-03-16T17:27:59.215Z,7.97
2023-03-16T17:30:32.261Z,10.43
2023-03-16T17:33:11.008Z,8.30
2023-03-16T17:35:37.729Z,8.25
2023-03-16T17:38:15.603Z,10.75
2023-03-16T17:40:44.776Z,9.98
2023-03-16T17:43:19.349Z,7.22
2023-03-16T17:45:49.417Z,6.05
2023-03-16T17:48:18.800Z,13.57
2023-03-16T17:50:46.743Z,8.38
2023-03-16T17:53:17.297Z,18.40
2023-03-16T17:55:46.235Z,9.43
2023-03-16T17:58:35.799Z,13.68
2023-03-16T18:01:04.401Z,10.55
2023-03-16T18:03:33.655Z,17.65
2023-03-16T18:06:00.747Z,16.42
2023-03-16T18:08:29.624Z,19.08
2023-03-16T18:10:57.928Z,28.33
2023-03-16T18:13:34.677Z,29.08
2023-03-16T18:16:05.708Z,20.17
2023-03-16T18:18:36.965Z,16.83
2023-03-16T18:21:04.608Z,21.67
2023-03-16T18:23:33.838Z,19.15
2023-03-16T18:26:03.540Z,15.25
2023-03-16T18:28:31.568Z,12.55
2023-03-16T18:30:59.111Z,11.50
2023-03-16T18:33:30.757Z,12.57
2023-03-16T18:36:00.779Z,19.80
2023-03-16T18:38:43.518Z,9.60
2023-03-16T18:41:20.937Z,8.65
2023-03-16T18:43:50.212Z,12.23
2023-03-16T18:46:35.444Z,7.43
2023-03-16T18:49:12.775Z,8.98
2023-03-16T18:51:42.526Z,7.78
2023-03-16T18:54:21.186Z,13.38
2023-03-16T18:56:48.434Z,8.90
2023-03-16T18:59:15.359Z,13.82
2023-03-16T19:01:44.524Z,10.60
2023-03-16T19:04:26.953Z,10.02
2023-03-16T19:06:55.220Z,9.68
2023-03-16T19:09:28.804Z,12.52
2023-03-16T19:11:56.116Z,14.82
2023-03-16T19:14:28.322Z,17.00
2023-03-16T19:16:57.654Z,12.60
2023-03-16T19:19:24.910Z,15.27
2023-03-16T19:21:58.101Z,14.07
2023-03-16T19:24:31.161Z,16.40
2023-03-16T19:26:58.195Z,17.23
2023-03-16T19:29:34.581Z,13.68
2023-03-16T19:32:04.703Z,16.83
2023-03-16T19:34:33.555Z,23.85
2023-03-16T19:37:00.447Z,19.23
2023-03-16T19:39:27.765Z,18.38
2023-03-16T19:42:02.731Z,14.82
2023-03-16T19:44:31.872Z,16.02
2023-03-16T19:47:04.082Z,14.15
2023-03-16T19:49:30.898Z,12.40
2023-03-16T19:51:57.803Z,12.52
2023-03-16T19:54:28.547Z,12.95
2023-03-16T19:56:57.974Z,11.98
2023-03-16T19:59:29.219Z,11.55
2023-03-16T20:01:58.447Z,18.45
2023-03-16T20:04:26.646Z,9.85
2023-03-16T20:06:53.996Z,11.80
2023-03-16T20:09:22.133Z,21.70
2023-03-16T20:11:53.443Z,11.15
2023-03-16T20:14:34.662Z,15.07
2023-03-16T20:17:01.651Z,16.92
2023-03-16T20:19:28.888Z,13.27
2023-03-16T20:21:55.824Z,11.88
2023-03-16T20:24:22.707Z,12.82
2023-03-16T20:26:51.294Z,9.02
2023-03-16T20:29:38.488Z,8.00
2023-03-16T20:32:25.229Z,14.40
2023-03-16T20:34:53.600Z,14.90
2023-03-16T20:37:26.206Z,17.45
2023-03-16T20:39:54.927Z,13.75
2023-03-16T20:42:25.864Z,15.45
2023-03-16T20:44:57.981Z,18.25
2023-03-16T20:47:26.172Z,16.60
2023-03-16T20:49:55.113Z,15.43
2023-03-16T20:52:25.160Z,25.20
2023-03-16T20:54:55.404Z,22.15
2023-03-16T20:57:25.794Z,22.25
2023-03-16T20:59:56.423Z,17.55
2023-03-16T21:02:29.081Z,16.10
2023-03-16T21:04:57.477Z,15.68
2023-03-16T21:07:24.756Z,19.13
2023-03-16T21:09:51.702Z,13.02
2023-03-16T21:12:30.565Z,13.23
2023-03-16T21:14:58.390Z,13.27
2023-03-16T21:17:33.297Z,13.57
2023-03-16T21:20:00.755Z,12.85
2023-03-16T21:22:33.684Z,12.30
2023-03-16T21:25:01.212Z,21.60
2023-03-16T21:27:30.619Z,11.73
2023-03-16T21:30:00.188Z,13.88
2023-03-16T21:32:28.001Z,11.00
2023-03-16T21:34:56.695Z,15.95
2023-03-16T21:37:27.989Z,10.30
2023-03-16T21:39:54.741Z,11.95
2023-03-16T21:42:21.471Z,11.68
2023-03-16T21:44:48.279Z,11.35
2023-03-16T21:47:30.672Z,12.27
2023-03-16T21:49:59.235Z,10.27
2023-03-16T21:52:28.639Z,14.70
2023-03-16T21:54:57.098Z,12.07
2023-03-16T21:57:24.117Z,12.90
2023-03-16T21:59:51.456Z,13.20
2023-03-16T22:02:24.265Z,18.27
2023-03-16T22:04:52.406Z,18.30
2023-03-16T22:07:20.832Z,12.75
2023-03-16T22:09:47.605Z,15.57
2023-03-16T22:12:14.772Z,13.45
2023-03-16T22:14:42.054Z,14.73
2023-03-16T22:17:21.131Z,9.88
2023-03-16T22:19:48.334Z,12.00
2023-03-16T22:22:16.837Z,14.32
2023-03-16T22:24:43.770Z,12.57
2023-03-16T22:27:37.222Z,10.27
2023-03-16T22:30:04.546Z,11.52
2023-03-16T22:32:31.550Z,12.30
2023-03-16T22:34:58.274Z,8.55
2023-03-16T22:37:27.275Z,12.32
2023-03-16T22:39:57.164Z,8.82
2023-03-16T22:42:26.066Z,13.23
2023-03-16T22:44:54.319Z,11.00
2023-03-16T22:47:33.504Z,12.93
2023-03-16T22:50:00.533Z,11.77
2023-03-16T22:52:32.358Z,10.05
2023-03-16T22:55:01.783Z,10.52
2023-03-16T22:57:29.868Z,10.32
2023-03-16T23:00:00.720Z,7.88
2023-03-16T23:02:29.219Z,10.35
2023-03-16T23:04:58.283Z,11.48
2023-03-16T23:07:25.225Z,12.30
2023-03-16T23:09:52.342Z,12.15
2023-03-16T23:12:26.178Z,14.18
2023-03-16T23:17:22.315Z,12.27
2023-03-16T23:19:49.249Z,9.40
2023-03-16T23:22:16.243Z,8.55
2023-03-16T23:24:43.128Z,9.45
2023-03-16T23:27:17.801Z,9.65
2023-03-16T23:29:44.570Z,9.05
2023-03-16T23:32:11.601Z,11.18
2023-03-16T23:34:40.522Z,11.52
2023-03-16T23:37:07.385Z,10.95
2023-03-16T23:39:36.515Z,8.43
2023-03-16T23:42:04.091Z,10.73
2023-03-16T23:44:31.214Z,9.35
2023-03-16T23:46:58.895Z,9.88
2023-03-16T23:49:29.957Z,9.57
2023-03-16T23:52:02.049Z,8.98
2023-03-16T23:54:31.243Z,10.30
2023-03-16T23:56:58.135Z,9.32
2023-03-16T23:59:25.687Z,9.18
